createdAt,value
2018-11-21T00:00:23.404Z,100191.80
2018-11-21T00:02:50.884Z,100196.58
2018-11-21T00:05:18.812Z,100199.27
2018-11-21T00:07:46.327Z,100197.88
2018-11-21T00:10:13.884Z,100199.48
2018-11-21T00:12:49.484Z,100190.41
2018-11-21T00:15:16.984Z,100190.50
2018-11-21T00:17:44.484Z,100186.98
2018-11-21T00:20:12.032Z,100184.55
2018-11-21T00:22:39.464Z,100178.07
2018-11-21T00:25:07.104Z,100177.92
2018-11-21T00:27:34.505Z,100182.79
2018-11-21T00:30:02.133Z,100178.38
2018-11-21T00:32:32.024Z,100181.55
2018-11-21T00:34:59.580Z,100180.14
2018-11-21T00:37:27.657Z,100180.97
2018-11-21T00:39:55.125Z,100189.11
2018-11-21T00:42:22.623Z,100189.95
2018-11-21T00:44:50.089Z,100196.74
2018-11-21T00:47:17.744Z,100195.84
2018-11-21T00:49:45.324Z,100198.29
2018-11-21T00:52:12.884Z,100189.73
2018-11-21T00:54:40.304Z,100180.92
2018-11-21T00:57:08.044Z,100195.92
2018-11-21T00:59:35.524Z,100191.56
2018-11-21T01:02:03.264Z,100194.62
2018-11-21T01:04:30.728Z,100192.86
2018-11-21T01:06:58.332Z,100200.20
2018-11-21T01:09:25.794Z,100197.84
2018-11-21T01:11:53.332Z,100185.95
2018-11-21T01:14:21.724Z,100185.48
2018-11-21T01:16:49.384Z,100193.27
2018-11-21T01:19:16.894Z,100183.36
2018-11-21T01:21:44.364Z,100193.79
2018-11-21T01:24:11.904Z,100192.49
2018-11-21T01:26:39.392Z,100189.59
2018-11-21T01:29:06.907Z,100187.67
2018-11-21T01:31:34.392Z,100182.95
2018-11-21T01:34:02.412Z,100174.23
2018-11-21T01:36:29.884Z,100169.98
2018-11-21T01:38:57.836Z,100173.11
2018-11-21T01:41:25.412Z,100173.05
2018-11-21T01:43:52.964Z,100178.55
2018-11-21T01:46:20.692Z,100177.25
2018-11-21T01:48:48.224Z,100168.33
2018-11-21T01:51:15.684Z,100161.60
2018-11-21T01:53:43.304Z,100168.95
2018-11-21T01:56:10.726Z,100163.60
2018-11-21T01:58:38.206Z,100168.79
2018-11-21T02:01:05.684Z,100180.14
2018-11-21T02:03:33.164Z,100187.77
2018-11-21T02:06:00.724Z,100190.36
2018-11-21T02:08:28.204Z,100206.13
2018-11-21T02:10:55.704Z,100216.38
2018-11-21T02:13:23.184Z,100215.61
2018-11-21T02:15:50.604Z,100217.22
2018-11-21T02:18:17.985Z,100214.16
2018-11-21T02:20:45.565Z,100214.16
2018-11-21T02:23:12.964Z,100207.98
2018-11-21T02:25:40.447Z,100214.78
2018-11-21T02:28:07.904Z,100207.16
2018-11-21T02:30:35.405Z,100214.02
2018-11-21T02:33:02.807Z,100233.55
2018-11-21T02:35:30.304Z,100232.78
2018-11-21T02:37:57.867Z,100235.12
2018-11-21T02:40:25.524Z,100222.86
2018-11-21T02:42:52.924Z,100218.00
2018-11-21T02:45:20.607Z,100215.25
2018-11-21T02:47:48.033Z,100214.32
2018-11-21T02:50:15.492Z,100213.86
2018-11-21T02:52:42.971Z,100225.37
2018-11-21T02:55:10.445Z,100233.30
2018-11-21T02:57:37.892Z,100234.75
2018-11-21T03:00:14.084Z,100241.60
2018-11-21T03:02:41.525Z,100237.97
2018-11-21T03:05:08.992Z,100244.39
2018-11-21T03:07:36.819Z,100238.97
2018-11-21T03:10:05.906Z,100236.16
2018-11-21T03:12:33.405Z,100234.70
2018-11-21T03:15:00.837Z,100240.51
2018-11-21T03:17:28.336Z,100241.66
2018-11-21T03:19:55.824Z,100243.94
2018-11-21T03:22:23.344Z,100249.06
2018-11-21T03:24:50.804Z,100251.34
2018-11-21T03:27:18.284Z,100243.87
2018-11-21T03:29:45.783Z,100240.57
2018-11-21T03:32:13.275Z,100242.64
2018-11-21T03:34:40.664Z,100247.36
2018-11-21T03:37:08.205Z,100248.35
2018-11-21T03:39:35.664Z,100256.91
2018-11-21T03:42:03.188Z,100247.45
2018-11-21T03:44:30.605Z,100248.29
2018-11-21T03:46:58.128Z,100242.27
2018-11-21T03:49:25.612Z,100239.67
2018-11-21T03:51:53.112Z,100257.73
2018-11-21T03:54:21.785Z,100261.63
2018-11-21T03:56:49.292Z,100266.97
2018-11-21T03:59:16.713Z,100260.18
2018-11-21T04:01:44.183Z,100270.55
2018-11-21T04:04:11.645Z,100265.06
2018-11-21T04:06:39.664Z,100268.89
2018-11-21T04:09:09.012Z,100269.20
2018-11-21T04:11:36.465Z,100277.91
2018-11-21T04:14:04.045Z,100269.35
2018-11-21T04:16:31.504Z,100268.89
2018-11-21T04:18:58.984Z,100282.16
2018-11-21T04:21:26.397Z,100274.07
2018-11-21T04:23:53.886Z,100271.54
2018-11-21T04:26:21.325Z,100284.39
2018-11-21T04:28:48.980Z,100295.05
2018-11-21T04:31:17.053Z,100274.23
2018-11-21T04:33:44.678Z,100276.20
2018-11-21T04:36:12.792Z,100298.10
2018-11-21T04:38:40.244Z,100295.50
2018-11-21T04:41:07.666Z,100290.72
2018-11-21T04:43:35.364Z,100291.61
2018-11-21T04:46:03.744Z,100290.32
2018-11-21T04:48:31.513Z,100296.95
2018-11-21T04:50:58.929Z,100290.56
2018-11-21T04:53:28.054Z,100290.94
2018-11-21T04:55:54.325Z,100305.52
2018-11-21T04:58:21.805Z,100298.66
2018-11-21T05:00:49.326Z,100307.33
2018-11-21T05:03:16.753Z,100335.19
2018-11-21T05:05:44.264Z,100316.97
2018-11-21T05:08:11.685Z,100313.52
2018-11-21T05:10:39.245Z,100313.66
2018-11-21T05:13:06.704Z,100316.66
2018-11-21T05:15:34.312Z,100333.74
2018-11-21T05:18:01.719Z,100328.19
2018-11-21T05:20:29.976Z,100327.03
2018-11-21T05:22:57.404Z,100315.80
2018-11-21T05:25:24.884Z,100322.91
2018-11-21T05:27:52.353Z,100315.67
2018-11-21T05:30:19.865Z,100322.22
2018-11-21T05:32:47.385Z,100326.80
2018-11-21T05:35:14.953Z,100349.93
2018-11-21T05:37:42.433Z,100342.92
2018-11-21T05:40:10.604Z,100342.15
2018-11-21T05:42:38.172Z,100344.38
2018-11-21T05:45:06.546Z,100342.98
2018-11-21T05:47:34.045Z,100350.70
2018-11-21T05:50:01.445Z,100351.17
2018-11-21T05:52:29.355Z,100364.05
2018-11-21T05:54:57.795Z,100365.75
2018-11-21T05:57:25.272Z,100370.53
2018-11-21T05:59:52.745Z,100385.27
2018-11-21T06:02:20.205Z,100393.83
2018-11-21T06:04:47.647Z,100387.25
2018-11-21T06:07:15.145Z,100385.06
2018-11-21T06:09:42.645Z,100387.66
2018-11-21T06:12:10.285Z,100388.49
2018-11-21T06:14:37.755Z,100394.98
2018-11-21T06:17:05.665Z,100397.17
2018-11-21T06:19:33.305Z,100404.12
2018-11-21T06:22:00.785Z,100405.19
2018-11-21T06:24:28.225Z,100409.86
2018-11-21T06:26:59.852Z,100410.37
2018-11-21T06:29:27.424Z,100412.83
2018-11-21T06:31:54.937Z,100418.02
2018-11-21T06:34:22.426Z,100421.23
2018-11-21T06:36:49.965Z,100415.88
2018-11-21T06:39:18.225Z,100426.11
2018-11-21T06:41:45.485Z,100419.53
2018-11-21T06:44:13.105Z,100419.22
2018-11-21T06:47:03.317Z,100427.00
2018-11-21T06:49:29.329Z,100427.47
2018-11-21T06:52:05.777Z,100432.60
2018-11-21T06:54:33.405Z,100442.83
2018-11-21T06:57:08.405Z,100429.39
2018-11-21T06:59:46.325Z,100448.08
2018-11-21T07:02:13.880Z,100447.70
2018-11-21T07:04:41.605Z,100457.70
2018-11-21T07:07:24.544Z,100456.84
2018-11-21T07:09:52.345Z,100465.87
2018-11-21T07:15:47.585Z,100482.44
2018-11-21T07:22:02.730Z,100494.72
2018-11-21T07:24:30.665Z,100506.02
2018-11-21T07:26:58.066Z,100511.20
2018-11-21T07:29:25.750Z,100509.36
2018-11-21T07:31:53.193Z,100511.20
2018-11-21T07:34:21.629Z,100510.94
2018-11-21T07:36:49.705Z,100519.36
2018-11-21T07:39:17.333Z,100526.77
2018-11-21T07:41:45.045Z,100531.41
2018-11-21T07:44:12.585Z,100529.80
2018-11-21T07:46:40.065Z,100529.36
2018-11-21T07:49:07.524Z,100534.47
2018-11-21T07:51:35.293Z,100543.17
2018-11-21T07:54:02.913Z,100535.30
2018-11-21T07:57:12.365Z,100534.92
2018-11-21T08:00:00.149Z,100545.77
2018-11-21T08:02:32.693Z,100544.92
2018-11-21T08:05:05.004Z,100554.70
2018-11-21T08:07:41.097Z,100552.57
2018-11-21T08:10:30.885Z,100550.76
2018-11-21T08:13:16.300Z,100551.13
2018-11-21T08:16:13.185Z,100554.19
2018-11-21T08:18:51.624Z,100566.05
2018-11-21T08:21:47.152Z,100568.83
2018-11-21T08:24:37.185Z,100570.40
2018-11-21T08:27:30.108Z,100576.80
2018-11-21T08:29:57.644Z,100578.05
2018-11-21T08:32:25.125Z,100579.25
2018-11-21T08:34:52.566Z,100586.01
2018-11-21T08:37:20.025Z,100590.22
2018-11-21T08:39:47.545Z,100584.48
2018-11-21T08:42:16.625Z,100592.08
2018-11-21T08:44:44.025Z,100591.05
2018-11-21T08:47:11.585Z,100594.94
2018-11-21T08:49:39.004Z,100589.78
2018-11-21T08:52:06.669Z,100594.66
2018-11-21T08:54:34.165Z,100594.56
2018-11-21T08:57:01.627Z,100600.41
2018-11-21T08:59:34.925Z,100602.48
2018-11-21T09:02:02.385Z,100598.84
2018-11-21T09:04:29.825Z,100607.79
2018-11-21T09:06:57.445Z,100602.19
2018-11-21T09:09:24.837Z,100610.56
2018-11-21T09:11:52.277Z,100607.05
2018-11-21T09:14:19.785Z,100608.80
2018-11-21T09:16:47.284Z,100611.72
2018-11-21T09:19:14.725Z,100615.53
2018-11-21T09:21:42.144Z,100612.64
2018-11-21T09:24:09.635Z,100615.91
2018-11-21T09:26:37.089Z,100615.55
2018-11-21T09:29:04.837Z,100613.47
2018-11-21T09:31:32.344Z,100615.28
2018-11-21T09:33:59.785Z,100614.30
2018-11-21T09:36:27.308Z,100622.09
2018-11-21T09:38:54.784Z,100627.28
2018-11-21T09:41:22.285Z,100620.47
2018-11-21T09:43:52.635Z,100621.62
2018-11-21T09:46:20.153Z,100619.81
2018-11-21T09:48:47.652Z,100615.23
2018-11-21T09:51:15.165Z,100618.05
2018-11-21T09:53:42.608Z,100623.70
2018-11-21T09:56:10.045Z,100621.72
2018-11-21T09:58:37.563Z,100620.45
2018-11-21T10:01:41.785Z,100621.61
2018-11-21T10:04:09.205Z,100624.33
2018-11-21T10:06:38.747Z,100623.46
2018-11-21T10:09:16.017Z,100622.39
2018-11-21T10:11:43.508Z,100618.21
2018-11-21T10:14:10.977Z,100619.25
2018-11-21T10:16:38.544Z,100620.86
2018-11-21T10:19:06.269Z,100627.59
2018-11-21T10:21:35.204Z,100638.64
2018-11-21T10:24:02.904Z,100632.84
2018-11-21T10:26:30.696Z,100626.15
2018-11-21T10:28:58.213Z,100629.70
2018-11-21T10:31:25.872Z,100624.36
2018-11-21T10:33:53.344Z,100627.34
2018-11-21T10:36:20.928Z,100629.41
2018-11-21T10:38:48.645Z,100634.08
2018-11-21T10:41:16.192Z,100624.06
2018-11-21T10:43:49.992Z,100636.36
2018-11-21T10:46:17.604Z,100626.48
2018-11-21T10:48:45.644Z,100636.68
2018-11-21T10:51:14.530Z,100631.86
2018-11-21T10:53:41.104Z,100629.14
2018-11-21T10:56:08.548Z,100625.67
2018-11-21T10:58:36.096Z,100611.59
2018-11-21T11:01:21.685Z,100624.12
2018-11-21T11:03:58.137Z,100618.49
2018-11-21T11:06:43.864Z,100626.14
2018-11-21T11:09:40.813Z,100636.84
2018-11-21T11:12:43.267Z,100621.31
2018-11-21T11:15:26.888Z,100628.30
2018-11-21T11:18:12.851Z,100628.50
2018-11-21T11:21:01.156Z,100639.36
2018-11-21T11:23:51.580Z,100641.13
2018-11-21T11:26:38.695Z,100632.08
2018-11-21T11:29:25.817Z,100643.03
2018-11-21T11:32:22.123Z,100640.86
2018-11-21T11:35:10.483Z,100636.96
2018-11-21T11:38:03.489Z,100641.32
2018-11-21T11:40:54.416Z,100647.13
2018-11-21T11:43:53.324Z,100655.76
2018-11-21T11:46:38.763Z,100649.67
2018-11-21T11:49:24.844Z,100651.00
2018-11-21T11:52:15.125Z,100650.48
2018-11-21T11:55:02.214Z,100649.84
2018-11-21T11:58:01.332Z,100653.97
2018-11-21T12:00:40.504Z,100659.69
2018-11-21T12:03:26.155Z,100662.75
2018-11-21T12:06:12.624Z,100643.06
2018-11-21T12:09:05.804Z,100649.75
2018-11-21T12:11:51.760Z,100658.84
2018-11-21T12:14:37.292Z,100657.87
2018-11-21T12:17:22.764Z,100654.23
2018-11-21T12:20:23.925Z,100653.68
2018-11-21T12:23:20.304Z,100657.69
2018-11-21T12:26:16.696Z,100660.14
2018-11-21T12:29:22.124Z,100663.03
2018-11-21T12:32:08.197Z,100660.12
2018-11-21T12:35:13.306Z,100660.78
2018-11-21T12:37:57.105Z,100663.58
2018-11-21T12:40:53.051Z,100662.67
2018-11-21T12:43:38.592Z,100671.16
2018-11-21T12:46:25.364Z,100672.55
2018-11-21T12:49:12.304Z,100671.95
2018-11-21T12:52:05.284Z,100680.25
2018-11-21T12:54:52.334Z,100672.98
2018-11-21T12:57:45.493Z,100668.84
2018-11-21T13:00:31.325Z,100673.72
2018-11-21T13:03:03.864Z,100673.02
2018-11-21T13:05:49.372Z,100672.48
2018-11-21T13:08:34.992Z,100673.72
2018-11-21T13:11:22.012Z,100673.68
2018-11-21T13:14:07.567Z,100676.41
2018-11-21T13:17:00.473Z,100670.30
2018-11-21T13:19:45.992Z,100680.69
2018-11-21T13:22:44.971Z,100686.71
2018-11-21T13:25:30.425Z,100685.50
2018-11-21T13:28:20.035Z,100687.31
2018-11-21T13:31:06.997Z,100688.09
2018-11-21T13:33:53.984Z,100691.58
2018-11-21T13:36:49.797Z,100689.31
2018-11-21T13:39:55.285Z,100687.55
2018-11-21T13:42:30.439Z,100685.22
2018-11-21T13:45:19.305Z,100685.55
2018-11-21T13:48:21.305Z,100689.72
2018-11-21T13:51:05.875Z,100679.84
2018-11-21T13:53:58.864Z,100690.47
2018-11-21T13:56:26.264Z,100686.90
2018-11-21T13:58:53.844Z,100689.96
2018-11-21T14:01:21.744Z,100687.59
2018-11-21T14:03:49.424Z,100685.31
2018-11-21T14:06:16.904Z,100681.94
2018-11-21T14:08:44.572Z,100690.09
2018-11-21T14:11:12.226Z,100694.27
2018-11-21T14:13:39.869Z,100691.40
2018-11-21T14:16:07.385Z,100687.50
2018-11-21T14:18:34.836Z,100689.08
2018-11-21T14:21:02.472Z,100690.88
2018-11-21T14:23:30.025Z,100684.72
2018-11-21T14:25:57.525Z,100696.41
2018-11-21T14:28:25.024Z,100693.30
2018-11-21T14:30:52.485Z,100702.56
2018-11-21T14:33:20.085Z,100711.46
2018-11-21T14:35:47.604Z,100706.78
2018-11-21T14:38:15.337Z,100705.56
2018-11-21T14:40:42.974Z,100705.75
2018-11-21T14:43:10.496Z,100720.53
2018-11-21T14:45:38.096Z,100714.92
2018-11-21T14:48:05.828Z,100710.37
2018-11-21T14:50:39.113Z,100713.21
2018-11-21T14:53:02.132Z,100717.19
2018-11-21T14:55:29.663Z,100716.86
2018-11-21T14:57:57.116Z,100714.72
2018-11-21T15:00:25.124Z,100716.53
2018-11-21T15:02:52.605Z,100716.39
2018-11-21T15:05:20.169Z,100709.84
2018-11-21T15:07:47.944Z,100711.06
2018-11-21T15:10:15.615Z,100716.00
2018-11-21T15:12:43.144Z,100706.01
2018-11-21T15:15:13.704Z,100708.86
2018-11-21T15:17:41.534Z,100699.50
2018-11-21T15:20:11.204Z,100705.98
2018-11-21T15:22:38.884Z,100712.55
2018-11-21T15:25:11.766Z,100716.49
2018-11-21T15:27:39.657Z,100726.49
2018-11-21T15:30:16.275Z,100730.97
2018-11-21T15:32:44.188Z,100731.98
2018-11-21T15:35:11.744Z,100738.30
2018-11-21T15:37:40.106Z,100732.69
2018-11-21T15:40:13.352Z,100739.30
2018-11-21T15:42:41.012Z,100745.41
2018-11-21T15:45:10.965Z,100738.00
2018-11-21T15:47:38.564Z,100734.11
2018-11-21T15:50:08.916Z,100742.31
2018-11-21T15:52:39.904Z,100747.08
2018-11-21T15:55:08.216Z,100754.41
2018-11-21T15:57:37.245Z,100751.09
2018-11-21T16:00:20.833Z,100758.83
2018-11-21T16:02:49.532Z,100762.31
2018-11-21T16:05:17.876Z,100764.14
2018-11-21T16:08:07.816Z,100770.67
2018-11-21T16:10:38.625Z,100760.81
2018-11-21T16:13:06.763Z,100769.84
2018-11-21T16:15:40.106Z,100772.59
2018-11-21T16:18:08.104Z,100780.67
2018-11-21T16:20:43.835Z,100773.90
2018-11-21T16:23:11.457Z,100774.73
2018-11-21T16:25:39.151Z,100786.94
2018-11-21T16:28:08.016Z,100782.93
2018-11-21T16:30:37.659Z,100781.84
2018-11-21T16:33:05.899Z,100787.48
2018-11-21T16:35:33.538Z,100794.38
2018-11-21T16:38:01.357Z,100796.69
2018-11-21T16:40:30.265Z,100800.20
2018-11-21T16:42:59.004Z,100807.39
2018-11-21T16:45:28.513Z,100795.39
2018-11-21T16:47:56.064Z,100799.52
2018-11-21T16:50:23.485Z,100803.03
2018-11-21T16:52:51.225Z,100803.80
2018-11-21T16:55:20.489Z,100817.93
2018-11-21T16:57:48.624Z,100819.80
2018-11-21T17:00:18.093Z,100814.62
2018-11-21T17:02:45.844Z,100815.91
2018-11-21T17:05:14.885Z,100819.87
2018-11-21T17:07:42.792Z,100815.58
2018-11-21T17:10:12.105Z,100819.47
2018-11-21T17:12:39.784Z,100816.08
2018-11-21T17:15:09.704Z,100819.47
2018-11-21T17:17:37.081Z,100824.98
2018-11-21T17:20:06.244Z,100815.53
2018-11-21T17:22:33.664Z,100824.66
2018-11-21T17:25:01.147Z,100822.47
2018-11-21T17:27:28.584Z,100821.17
2018-11-21T17:29:56.017Z,100822.47
2018-11-21T17:32:23.464Z,100837.11
2018-11-21T17:34:50.967Z,100832.50
2018-11-21T17:37:18.440Z,100832.42
2018-11-21T17:39:46.052Z,100838.86
2018-11-21T17:42:13.952Z,100846.30
2018-11-21T17:44:41.684Z,100828.49
2018-11-21T17:47:09.165Z,100839.37
2018-11-21T17:49:36.852Z,100841.45
2018-11-21T17:52:04.640Z,100832.77
2018-11-21T17:54:32.192Z,100831.59
2018-11-21T17:56:59.665Z,100831.92
2018-11-21T17:59:27.196Z,100838.41
2018-11-21T18:01:54.725Z,100840.16
2018-11-21T18:04:22.186Z,100828.53
2018-11-21T18:06:49.564Z,100824.27
2018-11-21T18:09:20.232Z,100837.23
2018-11-21T18:11:47.644Z,100847.26
2018-11-21T18:14:15.064Z,100843.37
2018-11-21T18:16:42.692Z,100834.22
2018-11-21T18:19:10.144Z,100837.77
2018-11-21T18:21:37.831Z,100837.85
2018-11-21T18:24:05.374Z,100851.61
2018-11-21T18:26:32.904Z,100842.12
2018-11-21T18:29:00.364Z,100833.96
2018-11-21T18:31:27.917Z,100836.09
2018-11-21T18:33:55.444Z,100837.47
2018-11-21T18:36:22.972Z,100848.05
2018-11-21T18:38:50.391Z,100839.14
2018-11-21T18:41:18.124Z,100836.94
2018-11-21T18:43:45.632Z,100853.33
2018-11-21T18:46:13.145Z,100850.73
2018-11-21T18:48:40.684Z,100857.05
2018-11-21T18:51:08.205Z,100854.92
2018-11-21T18:53:35.665Z,100853.63
2018-11-21T18:56:22.604Z,100861.06
2018-11-21T18:59:30.556Z,100858.52
2018-11-21T19:01:58.167Z,100864.95
2018-11-21T19:04:25.566Z,100863.61
2018-11-21T19:06:53.084Z,100872.34
2018-11-21T19:09:20.592Z,100868.34
2018-11-21T19:11:48.244Z,100871.43
2018-11-21T19:14:15.784Z,100883.48
2018-11-21T19:16:43.332Z,100876.57
2018-11-21T19:19:10.837Z,100870.09
2018-11-21T19:21:38.364Z,100871.55
2018-11-21T19:24:05.984Z,100874.94
2018-11-21T19:26:33.655Z,100867.16
2018-11-21T19:29:01.545Z,100879.32
2018-11-21T19:31:29.724Z,100887.09
2018-11-21T19:33:56.544Z,100871.05
2018-11-21T19:36:24.144Z,100877.64
2018-11-21T19:38:51.684Z,100872.88
2018-11-21T19:41:19.285Z,100879.66
2018-11-21T19:43:46.852Z,100872.72
2018-11-21T19:46:14.324Z,100894.80
2018-11-21T19:48:41.965Z,100882.09
2018-11-21T19:51:10.093Z,100890.19
2018-11-21T19:53:37.625Z,100887.09
2018-11-21T19:56:05.153Z,100885.00
2018-11-21T19:58:32.632Z,100881.19
2018-11-21T20:01:00.204Z,100887.48
2018-11-21T20:03:27.852Z,100880.66
2018-11-21T20:05:55.333Z,100883.59
2018-11-21T20:08:22.872Z,100877.95
2018-11-21T20:10:51.092Z,100886.19
2018-11-21T20:13:18.664Z,100886.64
2018-11-21T20:15:46.144Z,100883.59
2018-11-21T20:18:13.672Z,100877.19
2018-11-21T20:20:41.145Z,100890.75
2018-11-21T20:23:11.144Z,100894.37
2018-11-21T20:25:38.672Z,100885.69
2018-11-21T20:28:06.244Z,100882.75
2018-11-21T20:30:35.604Z,100882.25
2018-11-21T20:33:03.144Z,100881.84
2018-11-21T20:35:30.663Z,100880.50
2018-11-21T20:37:58.184Z,100873.22
2018-11-21T20:40:27.499Z,100887.89
2018-11-21T20:42:55.044Z,100871.05
2018-11-21T20:45:23.924Z,100868.84
2018-11-21T20:47:56.064Z,100874.14
2018-11-21T20:50:23.583Z,100868.99
2018-11-21T20:52:51.504Z,100878.52
2018-11-21T20:55:20.732Z,100879.36
2018-11-21T20:57:48.153Z,100878.26
2018-11-21T21:00:17.285Z,100879.09
2018-11-21T21:02:46.730Z,100883.48
2018-11-21T21:05:17.432Z,100887.44
2018-11-21T21:08:03.552Z,100885.28
2018-11-21T21:10:33.613Z,100882.34
2018-11-21T21:13:01.124Z,100885.96
2018-11-21T21:15:28.713Z,100879.09
2018-11-21T21:17:56.344Z,100881.39
2018-11-21T21:20:25.244Z,100873.12
2018-11-21T21:22:54.585Z,100876.66
2018-11-21T21:25:23.644Z,100884.81
2018-11-21T21:27:51.164Z,100882.64
2018-11-21T21:30:36.984Z,100871.02
2018-11-21T21:33:05.236Z,100891.53
2018-11-21T21:35:33.632Z,100881.62
2018-11-21T21:38:01.165Z,100883.38
2018-11-21T21:40:29.133Z,100875.98
2018-11-21T21:42:56.887Z,100881.46
2018-11-21T21:45:25.747Z,100889.28
2018-11-21T21:47:53.255Z,100882.69
2018-11-21T21:50:22.504Z,100878.03
2018-11-21T21:52:50.204Z,100888.33
2018-11-21T21:55:19.044Z,100885.73
2018-11-21T21:57:46.484Z,100880.55
2018-11-21T22:00:18.864Z,100888.73
2018-11-21T22:02:46.786Z,100874.98
2018-11-21T22:05:14.455Z,100875.86
2018-11-21T22:07:42.233Z,100881.13
2018-11-21T22:10:11.732Z,100875.09
2018-11-21T22:12:39.304Z,100880.63
2018-11-21T22:15:24.373Z,100871.98
2018-11-21T22:17:52.444Z,100869.50
2018-11-21T22:20:22.304Z,100879.71
2018-11-21T22:22:50.392Z,100874.19
2018-11-21T22:25:18.144Z,100877.62
2018-11-21T22:27:45.583Z,100877.50
2018-11-21T22:30:14.144Z,100879.14
2018-11-21T22:32:42.687Z,100879.25
2018-11-21T22:35:11.172Z,100887.44
2018-11-21T22:37:38.672Z,100886.64
2018-11-21T22:40:08.625Z,100887.44
2018-11-21T22:42:36.127Z,100895.72
2018-11-21T22:45:03.878Z,100888.28
2018-11-21T22:47:31.572Z,100887.94
2018-11-21T22:49:59.276Z,100888.28
2018-11-21T22:52:27.025Z,100893.39
2018-11-21T22:54:54.852Z,100887.71
2018-11-21T22:57:22.612Z,100879.94
2018-11-21T22:59:50.404Z,100893.81
2018-11-21T23:02:18.844Z,100886.57
2018-11-21T23:04:46.445Z,100888.20
2018-11-21T23:07:14.204Z,100887.44
2018-11-21T23:09:41.916Z,100888.20
2018-11-21T23:12:09.679Z,100891.72
2018-11-21T23:14:37.392Z,100892.78
2018-11-21T23:17:05.128Z,100896.09
2018-11-21T23:19:32.805Z,100888.82
2018-11-21T23:22:00.625Z,100895.38
2018-11-21T23:24:28.304Z,100894.64
2018-11-21T23:26:56.104Z,100894.64
2018-11-21T23:29:23.833Z,100888.94
2018-11-21T23:31:51.593Z,100889.89
2018-11-21T23:34:19.296Z,100894.69
2018-11-21T23:36:47.026Z,100902.00
2018-11-21T23:39:14.533Z,100889.89
2018-11-21T23:41:42.252Z,100896.59
2018-11-21T23:44:09.752Z,100897.47
2018-11-21T23:46:37.293Z,100887.64
2018-11-21T23:49:04.848Z,100885.89
2018-11-21T23:51:32.304Z,100888.94
2018-11-21T23:53:59.924Z,100885.16
2018-11-21T23:56:27.352Z,100882.23
2018-11-21T23:58:54.824Z,100884.59
